Allendale, Wyoming
Current Conditions -  °F | °C
As of 11:53 AM on Thursday 23 Oct 2014 (Local Time) from KCPR Reporting Station
Clear Clear  
Wind Chill: 64°   Ceiling: Unl
Heat Index: 64°   Visibility: 10mi
Dew Point: 24°   Wind: 24mph
Humidity: 22%   Direction: 220°SW
Pressure: 30.08"   Gusts: 31mph
Location:  42.84°N, 106.275°W
Report Text: KCPR 231753Z 22021G27KT 10SM CLR 18/M04 A3008 RMK AO2 PK WND 22027/1746 SLP149 T01781044 10178 20072 58003
Loading
Personal Weather Stations






























Interactive Weather Map New forecast layout! Learn more

10-Day Weather Forecast

Advertisements
Track Severe Weather on mobile